createdAt,value
2022-12-24T00:01:04.818Z,11.40
2022-12-24T00:03:32.597Z,11.30
2022-12-24T00:06:05.183Z,11.30
2022-12-24T00:08:32.012Z,11.20
2022-12-24T00:10:59.211Z,11.20
2022-12-24T00:13:26.050Z,11.20
2022-12-24T00:15:52.822Z,11.20
2022-12-24T00:18:19.706Z,11.20
2022-12-24T00:20:48.484Z,11.30
2022-12-24T00:23:16.361Z,11.20
2022-12-24T00:25:43.696Z,11.20
2022-12-24T00:28:10.708Z,11.20
2022-12-24T00:30:42.031Z,11.20
2022-12-24T00:33:09.626Z,11.10
2022-12-24T00:35:38.007Z,11.10
2022-12-24T00:38:04.946Z,11.10
2022-12-24T00:40:31.865Z,11.00
2022-12-24T00:42:58.811Z,11.00
2022-12-24T00:45:27.770Z,11.00
2022-12-24T00:47:54.559Z,11.10
2022-12-24T00:50:21.365Z,11.10
2022-12-24T00:52:48.280Z,11.00
2022-12-24T00:55:15.539Z,11.10
2022-12-24T00:57:42.415Z,11.10
2022-12-24T01:00:09.338Z,11.10
2022-12-24T01:02:36.184Z,11.00
2022-12-24T01:05:12.322Z,11.00
2022-12-24T01:07:42.186Z,11.00
2022-12-24T01:10:09.605Z,11.00
2022-12-24T01:12:36.655Z,10.90
2022-12-24T01:15:04.068Z,10.90
2022-12-24T01:17:35.613Z,10.90
2022-12-24T01:20:04.317Z,11.00
2022-12-24T01:22:31.194Z,11.00
2022-12-24T01:24:57.914Z,11.00
2022-12-24T01:27:24.656Z,11.00
2022-12-24T01:29:51.450Z,10.90
2022-12-24T01:32:18.289Z,11.10
2022-12-24T01:34:45.147Z,11.10
2022-12-24T01:37:11.979Z,11.10
2022-12-24T01:39:38.729Z,11.20
2022-12-24T01:42:50.818Z,11.20
2022-12-24T01:45:41.980Z,11.10
2022-12-24T01:48:37.590Z,11.00
2022-12-24T01:51:04.366Z,11.00
2022-12-24T01:53:33.434Z,11.00
2022-12-24T01:56:01.192Z,10.90
2022-12-24T01:58:28.072Z,10.90
2022-12-24T02:00:55.043Z,10.80
2022-12-24T02:03:21.917Z,10.80
2022-12-24T02:05:54.830Z,10.80
2022-12-24T02:08:21.785Z,10.70
2022-12-24T02:10:48.786Z,10.70
2022-12-24T02:13:19.930Z,10.70
2022-12-24T02:16:14.188Z,10.60
2022-12-24T02:18:56.879Z,10.70
2022-12-24T02:21:44.636Z,10.70
2022-12-24T02:24:14.398Z,10.60
2022-12-24T02:27:12.640Z,10.60
2022-12-24T02:29:54.403Z,10.60
2022-12-24T02:32:38.776Z,10.60
2022-12-24T02:35:11.853Z,10.60
2022-12-24T02:37:44.395Z,10.60
2022-12-24T02:40:21.149Z,10.50
2022-12-24T02:42:56.859Z,10.50
2022-12-24T02:45:29.590Z,10.40
2022-12-24T02:47:57.137Z,10.50
2022-12-24T02:50:24.802Z,10.50
2022-12-24T02:52:52.268Z,10.50
2022-12-24T02:55:38.244Z,10.60
2022-12-24T02:58:31.199Z,10.60
2022-12-24T03:01:16.283Z,10.70
2022-12-24T03:03:52.129Z,10.70
2022-12-24T03:06:42.196Z,10.70
2022-12-24T03:09:37.846Z,10.70
2022-12-24T03:12:12.074Z,10.70
2022-12-24T03:14:41.607Z,10.70
2022-12-24T03:17:10.150Z,10.70
2022-12-24T03:19:37.739Z,10.70
2022-12-24T03:22:09.911Z,10.70
2022-12-24T03:24:37.291Z,10.80
2022-12-24T03:27:06.539Z,10.80
2022-12-24T03:29:33.852Z,10.70
2022-12-24T03:32:03.336Z,10.70
2022-12-24T03:34:30.940Z,10.70
2022-12-24T03:36:57.799Z,10.80
2022-12-24T03:39:24.557Z,10.80
2022-12-24T03:41:51.362Z,10.80
2022-12-24T03:44:18.146Z,10.80
2022-12-24T03:46:45.007Z,10.70
2022-12-24T03:49:11.737Z,10.70
2022-12-24T03:51:38.567Z,10.60
2022-12-24T03:54:05.267Z,10.70
2022-12-24T03:56:31.985Z,10.70
2022-12-24T03:58:58.816Z,10.60
2022-12-24T04:01:25.793Z,10.50
2022-12-24T04:03:52.581Z,10.40
2022-12-24T04:06:19.374Z,10.40
2022-12-24T04:08:46.372Z,10.30
2022-12-24T04:11:14.302Z,10.30
2022-12-24T04:13:41.272Z,10.40
2022-12-24T04:16:11.050Z,10.30
2022-12-24T04:18:38.828Z,10.40
2022-12-24T04:21:06.711Z,10.30
2022-12-24T04:23:35.944Z,10.30
2022-12-24T04:26:07.756Z,10.30
2022-12-24T04:28:35.265Z,10.30
2022-12-24T04:31:08.395Z,10.30
2022-12-24T04:33:35.282Z,10.30
2022-12-24T04:36:03.180Z,10.30
2022-12-24T04:38:30.584Z,10.30
2022-12-24T04:41:08.914Z,10.30
2022-12-24T04:43:35.763Z,10.40
2022-12-24T04:46:18.478Z,10.30
2022-12-24T04:48:47.425Z,10.30
2022-12-24T04:51:14.693Z,10.30
2022-12-24T04:53:42.028Z,10.20
2022-12-24T04:56:21.393Z,10.30
2022-12-24T04:59:01.343Z,10.30
2022-12-24T05:01:31.203Z,10.20
2022-12-24T05:03:59.220Z,10.10
2022-12-24T05:06:29.820Z,10.10
2022-12-24T05:08:58.392Z,10.10
2022-12-24T05:11:25.778Z,10.00
2022-12-24T05:13:52.603Z,10.00
2022-12-24T05:16:21.519Z,10.00
2022-12-24T05:18:48.470Z,10.00
2022-12-24T05:21:18.161Z,9.90
2022-12-24T05:24:03.940Z,9.90
2022-12-24T05:26:37.403Z,9.80
2022-12-24T05:29:06.051Z,9.70
2022-12-24T05:31:34.001Z,9.70
2022-12-24T05:34:02.117Z,9.80
2022-12-24T05:36:29.301Z,9.70
2022-12-24T05:38:56.214Z,9.70
2022-12-24T05:41:23.148Z,9.70
2022-12-24T05:43:50.716Z,9.70
2022-12-24T05:46:20.788Z,9.80
2022-12-24T05:48:48.828Z,9.80
2022-12-24T05:51:22.140Z,9.90
2022-12-24T05:53:50.783Z,9.90
2022-12-24T05:56:22.473Z,9.80
2022-12-24T05:58:49.883Z,9.90
2022-12-24T06:01:17.942Z,9.90
2022-12-24T06:03:45.015Z,9.90
2022-12-24T06:06:13.783Z,9.90
2022-12-24T06:08:41.867Z,9.90
2022-12-24T06:11:11.658Z,9.90
2022-12-24T06:13:39.823Z,9.90
2022-12-24T06:16:08.708Z,9.80
2022-12-24T06:18:36.552Z,9.80
2022-12-24T06:21:04.107Z,9.80
2022-12-24T06:23:33.088Z,9.80
2022-12-24T06:26:01.036Z,9.90
2022-12-24T06:28:33.279Z,9.80
2022-12-24T06:31:04.100Z,9.80
2022-12-24T06:33:32.330Z,9.80
2022-12-24T06:35:59.278Z,9.90
2022-12-24T06:38:26.199Z,9.90
2022-12-24T06:40:53.009Z,10.00
2022-12-24T06:43:19.827Z,10.10
2022-12-24T06:45:47.928Z,10.10
2022-12-24T06:48:15.890Z,10.10
2022-12-24T06:50:43.144Z,10.10
2022-12-24T06:53:10.489Z,10.20
2022-12-24T06:55:37.999Z,10.30
2022-12-24T06:58:05.327Z,10.40
2022-12-24T07:00:32.172Z,10.30
2022-12-24T07:02:59.140Z,10.30
2022-12-24T07:05:26.232Z,10.40
2022-12-24T07:07:53.179Z,10.40
2022-12-24T07:10:20.829Z,10.50
2022-12-24T07:12:47.923Z,10.40
2022-12-24T07:15:16.263Z,10.40
2022-12-24T07:17:43.576Z,10.40
2022-12-24T07:20:13.880Z,10.40
2022-12-24T07:22:40.908Z,10.40
2022-12-24T07:25:07.799Z,10.40
2022-12-24T07:27:34.622Z,10.30
2022-12-24T07:30:01.454Z,10.30
2022-12-24T07:32:28.211Z,10.40
2022-12-24T07:34:55.191Z,10.40
2022-12-24T07:37:21.845Z,10.50
2022-12-24T07:39:48.605Z,10.50
2022-12-24T07:42:15.458Z,10.40
2022-12-24T07:44:42.222Z,10.50
2022-12-24T07:47:09.051Z,10.40
2022-12-24T07:49:36.353Z,10.40
2022-12-24T07:52:03.772Z,10.40
2022-12-24T07:54:30.492Z,10.40
2022-12-24T07:56:57.329Z,10.40
2022-12-24T07:59:24.152Z,10.40
2022-12-24T08:01:51.062Z,10.50
2022-12-24T08:04:17.846Z,10.50
2022-12-24T08:06:44.961Z,10.60
2022-12-24T08:09:11.677Z,10.60
2022-12-24T08:11:38.389Z,10.50
2022-12-24T08:14:05.116Z,10.70
2022-12-24T08:16:32.044Z,10.60
2022-12-24T08:18:58.852Z,10.60
2022-12-24T08:21:25.674Z,10.60
2022-12-24T08:23:52.530Z,10.60
2022-12-24T08:26:19.319Z,10.60
2022-12-24T08:28:45.997Z,10.60
2022-12-24T08:31:12.910Z,10.60
2022-12-24T08:33:39.639Z,10.60
2022-12-24T08:36:06.663Z,10.50
2022-12-24T08:38:33.427Z,10.60
2022-12-24T08:41:00.226Z,10.60
2022-12-24T08:43:27.490Z,10.60
2022-12-24T08:45:54.614Z,10.60
2022-12-24T08:48:21.632Z,10.60
2022-12-24T08:50:48.291Z,10.70
2022-12-24T08:53:15.076Z,10.70
2022-12-24T08:55:42.328Z,10.70
2022-12-24T08:58:09.322Z,10.80
2022-12-24T09:00:36.048Z,10.70
2022-12-24T09:03:03.177Z,10.70
2022-12-24T09:05:30.002Z,10.60
2022-12-24T09:07:57.038Z,10.60
2022-12-24T09:10:23.783Z,10.50
2022-12-24T09:12:51.220Z,10.50
2022-12-24T09:15:19.003Z,10.50
2022-12-24T09:17:45.807Z,10.60
2022-12-24T09:20:12.744Z,10.60
2022-12-24T09:22:39.505Z,10.60
2022-12-24T09:25:07.434Z,10.60
2022-12-24T09:27:34.559Z,10.60
2022-12-24T09:30:01.478Z,10.70
2022-12-24T09:32:28.164Z,10.70
2022-12-24T09:34:54.930Z,10.70
2022-12-24T09:37:21.666Z,10.60
2022-12-24T09:39:48.379Z,10.70
2022-12-24T09:42:30.626Z,10.70
2022-12-24T09:45:14.381Z,10.70
2022-12-24T09:47:51.751Z,10.70
2022-12-24T09:50:40.624Z,10.80
2022-12-24T09:53:38.412Z,10.90
2022-12-24T09:56:12.519Z,11.00
2022-12-24T09:58:49.875Z,11.20
2022-12-24T10:01:18.407Z,11.20
2022-12-24T10:03:46.602Z,11.40
2022-12-24T10:06:28.508Z,11.50
2022-12-24T10:09:02.490Z,11.50
2022-12-24T10:11:59.071Z,11.60
2022-12-24T10:14:25.827Z,11.60
2022-12-24T10:17:20.425Z,11.60
2022-12-24T10:20:27.164Z,11.80
2022-12-24T10:23:12.870Z,12.00
2022-12-24T10:25:52.515Z,12.70
2022-12-24T10:28:29.455Z,14.30
2022-12-24T10:31:08.046Z,15.70
2022-12-24T10:33:42.897Z,17.10
2022-12-24T10:36:23.771Z,18.40
2022-12-24T10:38:50.833Z,19.60
2022-12-24T10:41:17.649Z,19.80
2022-12-24T10:43:46.067Z,19.20
2022-12-24T10:46:21.220Z,18.50
2022-12-24T10:49:20.873Z,17.70
2022-12-24T10:52:12.531Z,16.50
2022-12-24T10:55:07.257Z,15.70
2022-12-24T10:57:34.857Z,14.90
2022-12-24T11:00:01.822Z,14.30
2022-12-24T11:02:35.553Z,13.80
2022-12-24T11:05:05.185Z,13.60
2022-12-24T11:07:32.400Z,13.40
2022-12-24T11:10:04.902Z,13.30
2022-12-24T11:12:39.362Z,13.20
2022-12-24T11:15:44.873Z,13.10
2022-12-24T11:18:15.728Z,13.20
2022-12-24T11:20:50.785Z,13.20
2022-12-24T11:23:18.006Z,13.10
2022-12-24T11:25:49.907Z,13.00
2022-12-24T11:28:33.080Z,13.10
2022-12-24T11:31:20.561Z,13.10
2022-12-24T11:33:52.702Z,13.10
2022-12-24T11:36:22.990Z,13.10
2022-12-24T11:38:57.888Z,13.10
2022-12-24T11:41:26.229Z,13.20
2022-12-24T11:44:03.616Z,13.10
2022-12-24T11:46:52.229Z,13.00
2022-12-24T11:49:32.358Z,13.00
2022-12-24T11:52:16.532Z,13.10
2022-12-24T11:54:52.367Z,13.30
2022-12-24T11:57:22.929Z,13.60
2022-12-24T11:59:51.682Z,13.60
2022-12-24T12:02:36.826Z,13.80
2022-12-24T12:05:10.098Z,14.40
2022-12-24T12:07:38.530Z,14.70
2022-12-24T12:10:11.284Z,14.70
2022-12-24T12:12:42.497Z,16.00
2022-12-24T12:15:27.395Z,17.00
2022-12-24T12:18:07.521Z,17.10
2022-12-24T12:20:45.237Z,16.50
2022-12-24T12:23:28.577Z,16.50
2022-12-24T12:26:04.433Z,16.70
2022-12-24T12:28:49.378Z,16.90
2022-12-24T12:31:44.731Z,17.10
2022-12-24T12:34:24.747Z,16.50
2022-12-24T12:37:08.418Z,15.80
2022-12-24T12:39:39.412Z,15.20
2022-12-24T12:42:25.197Z,14.80
2022-12-24T12:45:10.123Z,14.60
2022-12-24T12:47:39.888Z,14.20
2022-12-24T12:50:23.293Z,14.00
2022-12-24T12:53:06.624Z,13.70
2022-12-24T12:55:52.128Z,13.60
2022-12-24T12:58:31.202Z,13.50
2022-12-24T13:01:13.448Z,13.70
2022-12-24T13:04:10.543Z,14.40
2022-12-24T13:06:46.499Z,15.10
2022-12-24T13:09:35.290Z,15.50
2022-12-24T13:12:17.272Z,15.80
2022-12-24T13:15:14.444Z,16.80
2022-12-24T13:17:50.267Z,17.90
2022-12-24T13:20:21.681Z,18.10
2022-12-24T13:22:58.775Z,17.10
2022-12-24T13:25:42.893Z,16.20
2022-12-24T13:28:25.033Z,15.50
2022-12-24T13:31:13.440Z,14.90
2022-12-24T13:33:40.249Z,15.40
2022-12-24T13:36:08.031Z,16.70
2022-12-24T13:38:40.536Z,17.30
2022-12-24T13:41:38.334Z,16.80
2022-12-24T13:44:06.611Z,15.70
2022-12-24T13:46:50.067Z,15.10
2022-12-24T13:49:21.955Z,14.70
2022-12-24T13:51:50.697Z,14.20
2022-12-24T13:54:28.407Z,13.80
2022-12-24T13:56:55.278Z,13.50
2022-12-24T13:59:38.731Z,13.40
2022-12-24T14:02:17.847Z,13.30
2022-12-24T14:04:49.155Z,13.70
2022-12-24T14:07:19.796Z,14.40
2022-12-24T14:09:49.918Z,14.50
2022-12-24T14:12:32.469Z,14.50
2022-12-24T14:15:19.288Z,14.10
2022-12-24T14:17:48.344Z,13.70
2022-12-24T14:20:16.375Z,13.40
2022-12-24T14:22:45.895Z,13.20
2022-12-24T14:25:24.977Z,13.00
2022-12-24T14:28:17.472Z,12.80
2022-12-24T14:30:44.367Z,12.60
2022-12-24T14:33:30.281Z,12.60
2022-12-24T14:35:57.772Z,12.50
2022-12-24T14:38:25.093Z,12.40
2022-12-24T14:41:30.426Z,12.20
2022-12-24T14:44:05.316Z,12.10
2022-12-24T14:46:56.126Z,12.00
2022-12-24T14:49:52.408Z,11.90
2022-12-24T14:53:03.971Z,11.90
2022-12-24T14:55:36.711Z,11.80
2022-12-24T14:58:25.582Z,11.60
2022-12-24T15:00:55.576Z,11.60
2022-12-24T15:03:25.494Z,11.60
2022-12-24T15:06:03.808Z,11.50
2022-12-24T15:08:45.517Z,11.40
2022-12-24T15:11:18.195Z,11.40
2022-12-24T15:13:49.177Z,11.40
2022-12-24T15:16:26.875Z,11.30
2022-12-24T15:19:19.279Z,11.30
2022-12-24T15:21:46.204Z,11.30
2022-12-24T15:24:32.340Z,11.30
2022-12-24T15:27:03.004Z,11.20
2022-12-24T15:29:32.363Z,11.20
2022-12-24T15:32:02.030Z,11.20
2022-12-24T15:34:35.656Z,11.10
2022-12-24T15:37:14.376Z,11.10
2022-12-24T15:39:41.546Z,10.90
2022-12-24T15:42:14.667Z,10.90
2022-12-24T15:45:01.036Z,10.80
2022-12-24T15:47:38.322Z,10.80
2022-12-24T15:50:28.671Z,10.70
2022-12-24T15:53:21.096Z,10.60
2022-12-24T15:55:47.233Z,10.60
2022-12-24T15:58:29.493Z,10.60
2022-12-24T16:01:28.689Z,10.60
2022-12-24T16:03:58.862Z,10.50
2022-12-24T16:06:28.542Z,10.60
2022-12-24T16:08:56.734Z,10.50
2022-12-24T16:11:37.730Z,10.50
2022-12-24T16:14:18.939Z,10.50
2022-12-24T16:16:52.777Z,10.40
2022-12-24T16:19:23.738Z,10.40
2022-12-24T16:21:54.280Z,10.40
2022-12-24T16:24:27.175Z,10.30
2022-12-24T16:26:54.558Z,10.30
2022-12-24T16:29:22.613Z,10.30
2022-12-24T16:31:49.292Z,10.30
2022-12-24T16:34:17.318Z,10.30
2022-12-24T16:36:47.412Z,10.30
2022-12-24T16:39:33.146Z,10.20
2022-12-24T16:42:21.289Z,10.20
2022-12-24T16:44:48.256Z,10.20
2022-12-24T16:47:27.140Z,10.20
2022-12-24T16:49:54.125Z,10.10
2022-12-24T16:52:22.345Z,10.20
2022-12-24T16:54:52.613Z,10.30
2022-12-24T16:57:19.592Z,10.30
2022-12-24T16:59:46.271Z,10.40
2022-12-24T17:02:19.997Z,10.40
2022-12-24T17:04:50.133Z,10.40
2022-12-24T17:07:19.183Z,10.40
2022-12-24T17:09:46.128Z,10.40
2022-12-24T17:12:20.569Z,10.40
2022-12-24T17:15:31.402Z,10.40
2022-12-24T17:22:12.869Z,10.30
2022-12-24T17:25:08.020Z,10.30
2022-12-24T17:27:50.479Z,10.20
2022-12-24T17:30:22.567Z,10.30
2022-12-24T17:33:10.846Z,10.20
2022-12-24T17:35:42.295Z,10.10
2022-12-24T17:38:10.030Z,10.10
2022-12-24T17:40:37.253Z,10.00
2022-12-24T17:43:04.281Z,10.00
2022-12-24T17:45:31.539Z,10.00
2022-12-24T17:47:58.721Z,9.90
2022-12-24T17:50:25.909Z,9.90
2022-12-24T17:52:53.155Z,9.80
2022-12-24T17:55:23.020Z,9.90
2022-12-24T17:57:50.698Z,9.90
2022-12-24T18:00:18.346Z,9.80
2022-12-24T18:02:47.214Z,9.80
2022-12-24T18:05:14.456Z,9.90
2022-12-24T18:07:41.765Z,9.90
2022-12-24T18:10:09.753Z,9.90
2022-12-24T18:12:37.127Z,9.80
2022-12-24T18:15:05.810Z,9.80
2022-12-24T18:17:32.870Z,9.80
2022-12-24T18:19:59.787Z,9.90
2022-12-24T18:22:27.234Z,9.90
2022-12-24T18:24:54.202Z,9.90
2022-12-24T18:27:21.827Z,9.80
2022-12-24T18:32:40.904Z,9.70
2022-12-24T18:35:30.633Z,9.60
2022-12-24T18:38:33.518Z,9.70
2022-12-24T18:41:10.742Z,9.70
2022-12-24T18:43:41.717Z,9.70
2022-12-24T18:46:11.181Z,9.70
2022-12-24T18:48:45.346Z,9.80
2022-12-24T18:51:25.985Z,9.80
2022-12-24T18:54:01.586Z,9.90
2022-12-24T18:59:41.865Z,9.80
2022-12-24T19:02:10.117Z,9.80
2022-12-24T19:04:37.116Z,9.70
2022-12-24T19:07:03.805Z,9.70
2022-12-24T19:09:30.620Z,9.60
2022-12-24T19:11:57.864Z,9.60
2022-12-24T19:14:24.642Z,9.50
2022-12-24T19:16:51.967Z,9.50
2022-12-24T19:19:23.723Z,9.40
2022-12-24T19:21:51.869Z,9.40
2022-12-24T19:24:20.308Z,9.40
2022-12-24T19:26:48.568Z,9.30
2022-12-24T19:29:15.370Z,9.30
2022-12-24T19:31:44.339Z,9.30
2022-12-24T19:34:11.227Z,9.30
2022-12-24T19:36:37.995Z,9.30
2022-12-24T19:39:05.796Z,9.30
2022-12-24T19:41:32.509Z,9.30
2022-12-24T19:44:01.260Z,9.30
2022-12-24T19:46:34.026Z,9.30
2022-12-24T19:49:06.827Z,9.40
2022-12-24T19:51:36.323Z,9.30
2022-12-24T19:54:04.855Z,9.40
2022-12-24T19:56:32.650Z,9.40
2022-12-24T19:59:00.981Z,9.40
2022-12-24T20:01:30.010Z,9.30
2022-12-24T20:03:57.214Z,9.30
2022-12-24T20:06:26.923Z,9.30
2022-12-24T20:08:59.281Z,9.30
2022-12-24T20:11:26.040Z,9.40
2022-12-24T20:13:57.108Z,9.40
2022-12-24T20:16:24.213Z,9.40
2022-12-24T20:18:53.054Z,9.40
2022-12-24T20:21:20.117Z,9.30
2022-12-24T20:23:47.014Z,9.30
2022-12-24T20:26:15.473Z,9.30
2022-12-24T20:28:42.585Z,9.30
2022-12-24T20:31:15.164Z,9.30
2022-12-24T20:33:43.611Z,9.30
2022-12-24T20:36:11.130Z,9.30
2022-12-24T20:38:38.780Z,9.30
2022-12-24T20:41:05.981Z,9.20
2022-12-24T20:43:37.129Z,9.20
2022-12-24T20:46:05.585Z,9.20
2022-12-24T20:48:32.804Z,9.20
2022-12-24T20:50:59.832Z,9.20
2022-12-24T20:53:26.841Z,9.30
2022-12-24T20:55:53.797Z,9.30
2022-12-24T20:58:21.322Z,9.20
2022-12-24T21:00:49.607Z,9.20
2022-12-24T21:03:17.923Z,9.20
2022-12-24T21:05:45.608Z,9.30
2022-12-24T21:08:13.389Z,9.20
2022-12-24T21:10:41.067Z,9.20
2022-12-24T21:13:08.369Z,9.30
2022-12-24T21:15:39.924Z,9.30
2022-12-24T21:18:11.785Z,9.20
2022-12-24T21:20:40.207Z,9.20
2022-12-24T21:23:07.756Z,9.20
2022-12-24T21:25:35.955Z,9.20
2022-12-24T21:28:02.883Z,9.10
2022-12-24T21:30:29.738Z,9.20
2022-12-24T21:32:56.584Z,9.20
2022-12-24T21:35:23.438Z,9.10
2022-12-24T21:37:50.339Z,9.20
2022-12-24T21:40:17.258Z,9.10
2022-12-24T21:42:44.044Z,9.20
2022-12-24T21:45:11.530Z,9.20
2022-12-24T21:47:38.372Z,9.30
2022-12-24T21:50:31.691Z,9.30
2022-12-24T21:53:17.984Z,9.30
2022-12-24T21:55:44.966Z,9.30
2022-12-24T21:58:11.678Z,9.30
2022-12-24T22:00:38.372Z,9.30
2022-12-24T22:03:05.297Z,9.20
2022-12-24T22:05:33.253Z,9.20
2022-12-24T22:08:18.557Z,9.20
2022-12-24T22:11:03.722Z,9.20
2022-12-24T22:13:31.521Z,9.20
2022-12-24T22:15:58.311Z,9.20
2022-12-24T22:18:26.134Z,9.10
2022-12-24T22:20:53.060Z,9.20
2022-12-24T22:23:20.225Z,9.20
2022-12-24T22:25:47.506Z,9.10
2022-12-24T22:28:14.415Z,9.10
2022-12-24T22:30:42.541Z,9.10
2022-12-24T22:33:10.863Z,9.10
2022-12-24T22:35:40.400Z,9.10
2022-12-24T22:38:09.365Z,9.10
2022-12-24T22:40:38.526Z,9.10
2022-12-24T22:43:05.445Z,9.10
2022-12-24T22:45:32.388Z,9.10
2022-12-24T22:47:59.132Z,9.10
2022-12-24T22:50:26.024Z,9.10
2022-12-24T22:52:53.843Z,9.20
2022-12-24T22:55:21.201Z,9.30
2022-12-24T22:57:48.967Z,9.30
2022-12-24T23:00:38.063Z,9.30
2022-12-24T23:03:05.910Z,9.30
2022-12-24T23:05:32.856Z,9.30
2022-12-24T23:07:59.642Z,9.30
2022-12-24T23:10:26.467Z,9.40
2022-12-24T23:13:15.142Z,9.30
2022-12-24T23:15:42.657Z,9.30
2022-12-24T23:18:10.161Z,9.30
2022-12-24T23:20:42.338Z,9.40
2022-12-24T23:23:09.471Z,9.40
2022-12-24T23:25:36.416Z,9.50
2022-12-24T23:28:03.428Z,9.50
2022-12-24T23:30:30.290Z,9.60
2022-12-24T23:32:57.088Z,9.50
2022-12-24T23:35:23.802Z,9.50
2022-12-24T23:37:50.630Z,9.50
2022-12-24T23:40:17.589Z,9.60
2022-12-24T23:42:44.537Z,9.70
2022-12-24T23:45:11.478Z,9.60
2022-12-24T23:47:38.276Z,9.60
2022-12-24T23:50:06.525Z,9.60
2022-12-24T23:52:33.326Z,9.60
2022-12-24T23:55:00.091Z,9.70
2022-12-24T23:57:26.849Z,9.60
2022-12-24T23:59:53.570Z,9.60
